Lewistown, Montana
Current Conditions -  °F | °C
As of 3:54 AM on Sunday 26 Oct 2014 (Local Time) from KLWT Reporting Station
Overcast Overcast  
Wind Chill: 59°   Ceiling: 11000
Heat Index: 59°   Visibility: 10mi
Dew Point: 34°   Wind: 30mph
Humidity: 39%   Direction: 210°SSW
Pressure: 29.62"   Gusts: 39mph
Location:  47.07°N, 109.42°W
Report Text: KLWT 260954Z AUTO 21026G34KT 10SM OVC110 15/01 A2962 RMK AO2 PK WND 24040/0926 SLP994 T01500011
Loading
Personal Weather Stations






























Interactive Weather Map New forecast layout! Learn more

10-Day Weather Forecast

Advertisements
Track Severe Weather on mobile